sensor_id;sensor_type;location;lat;lon;timestamp;pressure;altitude;pressure_sealevel;temperature;humidity
56737;BME280;42618;51.226;4.910;2023-05-02T00:00:54;49697.09;;;-146.94;90.08
56737;BME280;42618;51.226;4.910;2023-05-02T00:03:21;49651.25;;;-146.94;89.99
56737;BME280;42618;51.226;4.910;2023-05-02T00:05:48;49655.25;;;-146.94;89.58
56737;BME280;42618;51.226;4.910;2023-05-02T00:08:15;49649.25;;;-146.94;88.88
56737;BME280;42618;51.226;4.910;2023-05-02T00:10:42;49679.16;;;-146.94;89.46
56737;BME280;42618;51.226;4.910;2023-05-02T00:13:09;49707.06;;;-146.94;89.98
56737;BME280;42618;51.226;4.910;2023-05-02T00:15:35;49719.03;;;-146.94;89.95
56737;BME280;42618;51.226;4.910;2023-05-02T00:18:02;49671.19;;;-146.94;90.23
56737;BME280;42618;51.226;4.910;2023-05-02T00:20:29;49697.09;;;-146.94;90.39
56737;BME280;42618;51.226;4.910;2023-05-02T00:22:56;49683.16;;;-146.94;90.60
56737;BME280;42618;51.226;4.910;2023-05-02T00:25:22;49699.09;;;-146.94;90.87
56737;BME280;42618;51.226;4.910;2023-05-02T00:27:49;49675.19;;;-146.94;91.26
56737;BME280;42618;51.226;4.910;2023-05-02T00:30:17;49679.16;;;-146.94;91.07
56737;BME280;42618;51.226;4.910;2023-05-02T00:32:44;49679.16;;;-146.94;90.62
56737;BME280;42618;51.226;4.910;2023-05-02T00:35:11;49697.09;;;-146.94;90.68
56737;BME280;42618;51.226;4.910;2023-05-02T00:37:38;49683.16;;;-146.94;90.98
56737;BME280;42618;51.226;4.910;2023-05-02T00:40:06;49693.13;;;-146.94;91.16
56737;BME280;42618;51.226;4.910;2023-05-02T00:42:33;49673.19;;;-146.94;90.69
56737;BME280;42618;51.226;4.910;2023-05-02T00:45:05;49683.16;;;-146.94;91.47
56737;BME280;42618;51.226;4.910;2023-05-02T00:47:32;49687.13;;;-146.94;90.98
56737;BME280;42618;51.226;4.910;2023-05-02T00:50:00;49669.19;;;-146.94;90.67
56737;BME280;42618;51.226;4.910;2023-05-02T00:52:27;49695.09;;;-146.94;90.60
56737;BME280;42618;51.226;4.910;2023-05-02T00:54:54;49705.06;;;-146.94;90.20
56737;BME280;42618;51.226;4.910;2023-05-02T00:57:22;49703.09;;;-146.94;90.20
56737;BME280;42618;51.226;4.910;2023-05-02T00:59:49;49679.16;;;-146.94;89.89
56737;BME280;42618;51.226;4.910;2023-05-02T01:02:49;49709.06;;;-146.94;89.57
56737;BME280;42618;51.226;4.910;2023-05-02T01:05:44;49671.19;;;-146.94;89.49
56737;BME280;42618;51.226;4.910;2023-05-02T01:10:52;49685.13;;;-146.94;89.69
56737;BME280;42618;51.226;4.910;2023-05-02T01:13:27;49717.03;;;-146.94;89.13
56737;BME280;42618;51.226;4.910;2023-05-02T01:15:55;49697.09;;;-146.94;88.94
56737;BME280;42618;51.226;4.910;2023-05-02T01:18:25;49661.22;;;-146.94;88.89
56737;BME280;42618;51.226;4.910;2023-05-02T01:21:00;49683.16;;;-146.94;89.02
56737;BME280;42618;51.226;4.910;2023-05-02T01:23:40;49687.13;;;-146.94;88.94
56737;BME280;42618;51.226;4.910;2023-05-02T01:26:44;49719.03;;;-146.94;88.92
56737;BME280;42618;51.226;4.910;2023-05-02T01:29:14;49691.13;;;-146.94;88.92
56737;BME280;42618;51.226;4.910;2023-05-02T01:31:43;49679.16;;;-146.94;88.49
56737;BME280;42618;51.226;4.910;2023-05-02T01:34:12;49671.19;;;-146.94;88.73
56737;BME280;42618;51.226;4.910;2023-05-02T01:36:43;49689.13;;;-146.94;88.48
56737;BME280;42618;51.226;4.910;2023-05-02T01:39:13;49701.09;;;-146.94;88.27
56737;BME280;42618;51.226;4.910;2023-05-02T01:41:42;49715.03;;;-146.94;87.78
56737;BME280;42618;51.226;4.910;2023-05-02T01:44:10;49705.06;;;-146.94;88.16
56737;BME280;42618;51.226;4.910;2023-05-02T01:46:40;49683.16;;;-146.94;87.39
56737;BME280;42618;51.226;4.910;2023-05-02T01:49:09;49679.16;;;-146.94;87.57
56737;BME280;42618;51.226;4.910;2023-05-02T01:51:42;49705.06;;;-146.94;87.59
56737;BME280;42618;51.226;4.910;2023-05-02T01:54:11;49695.09;;;-146.94;87.65
56737;BME280;42618;51.226;4.910;2023-05-02T01:56:40;49681.16;;;-146.94;88.32
56737;BME280;42618;51.226;4.910;2023-05-02T01:59:12;49707.06;;;-146.94;88.10
56737;BME280;42618;51.226;4.910;2023-05-02T02:01:40;49707.06;;;-146.94;87.81
56737;BME280;42618;51.226;4.910;2023-05-02T02:04:10;49633.31;;;-146.94;88.28
56737;BME280;42618;51.226;4.910;2023-05-02T02:06:41;49693.13;;;-146.94;88.70
56737;BME280;42618;51.226;4.910;2023-05-02T02:09:09;49723.03;;;-146.94;89.25
56737;BME280;42618;51.226;4.910;2023-05-02T02:11:45;49719.03;;;-146.94;89.60
56737;BME280;42618;51.226;4.910;2023-05-02T02:14:24;49691.13;;;-146.94;89.69
56737;BME280;42618;51.226;4.910;2023-05-02T02:16:54;49687.13;;;-146.94;89.79
56737;BME280;42618;51.226;4.910;2023-05-02T02:19:22;49709.06;;;-146.94;90.29
56737;BME280;42618;51.226;4.910;2023-05-02T02:21:50;49740.97;;;-146.94;91.14
56737;BME280;42618;51.226;4.910;2023-05-02T02:24:20;49719.03;;;-146.94;91.64
56737;BME280;42618;51.226;4.910;2023-05-02T02:26:48;49725.00;;;-146.94;91.52
56737;BME280;42618;51.226;4.910;2023-05-02T02:29:14;49707.06;;;-146.94;92.28
56737;BME280;42618;51.226;4.910;2023-05-02T02:31:41;49705.06;;;-146.94;92.57
56737;BME280;42618;51.226;4.910;2023-05-02T02:34:08;49756.91;;;-146.94;92.66
56737;BME280;42618;51.226;4.910;2023-05-02T02:36:46;49723.03;;;-146.94;93.17
56737;BME280;42618;51.226;4.910;2023-05-02T02:39:37;49721.03;;;-146.94;93.35
56737;BME280;42618;51.226;4.910;2023-05-02T02:48:15;49695.09;;;-146.94;93.45
56737;BME280;42618;51.226;4.910;2023-05-02T02:53:21;49711.06;;;-146.94;93.30
56737;BME280;42618;51.226;4.910;2023-05-02T02:55:59;49709.06;;;-146.94;93.47
56737;BME280;42618;51.226;4.910;2023-05-02T02:58:55;49719.03;;;-146.94;94.51
56737;BME280;42618;51.226;4.910;2023-05-02T03:01:23;49713.06;;;-146.94;94.32
56737;BME280;42618;51.226;4.910;2023-05-02T03:03:52;49693.13;;;-146.94;94.53
56737;BME280;42618;51.226;4.910;2023-05-02T03:06:20;49709.06;;;-146.94;94.40
56737;BME280;42618;51.226;4.910;2023-05-02T03:08:49;49705.06;;;-146.94;94.07
56737;BME280;42618;51.226;4.910;2023-05-02T03:11:18;49711.06;;;-146.94;94.05
56737;BME280;42618;51.226;4.910;2023-05-02T03:13:45;49731.00;;;-146.94;93.85
56737;BME280;42618;51.226;4.910;2023-05-02T03:16:38;49679.16;;;-146.94;92.95
56737;BME280;42618;51.226;4.910;2023-05-02T03:19:09;49693.13;;;-146.94;92.44
56737;BME280;42618;51.226;4.910;2023-05-02T03:21:37;49721.03;;;-146.94;92.33
56737;BME280;42618;51.226;4.910;2023-05-02T03:24:10;49697.09;;;-146.94;91.69
56737;BME280;42618;51.226;4.910;2023-05-02T03:26:37;49697.09;;;-146.94;91.48
56737;BME280;42618;51.226;4.910;2023-05-02T03:29:07;49738.97;;;-146.94;91.65
56737;BME280;42618;51.226;4.910;2023-05-02T03:31:38;49738.97;;;-146.94;91.85
56737;BME280;42618;51.226;4.910;2023-05-02T03:34:04;49707.06;;;-146.94;91.26
56737;BME280;42618;51.226;4.910;2023-05-02T03:36:32;49663.22;;;-146.94;90.88
56737;BME280;42618;51.226;4.910;2023-05-02T03:38:59;49768.88;;;-146.94;90.82
56737;BME280;42618;51.226;4.910;2023-05-02T03:41:26;49709.06;;;-146.94;90.75
56737;BME280;42618;51.226;4.910;2023-05-02T03:44:00;49713.06;;;-146.94;90.77
56737;BME280;42618;51.226;4.910;2023-05-02T03:46:28;49693.13;;;-146.94;90.75
56737;BME280;42618;51.226;4.910;2023-05-02T03:48:58;49681.16;;;-146.94;90.85
56737;BME280;42618;51.226;4.910;2023-05-02T03:51:25;49725.00;;;-146.94;90.40
56737;BME280;42618;51.226;4.910;2023-05-02T03:53:54;49701.09;;;-146.94;90.55
56737;BME280;42618;51.226;4.910;2023-05-02T03:56:21;49727.00;;;-146.94;90.13
56737;BME280;42618;51.226;4.910;2023-05-02T03:59:01;49711.06;;;-146.94;90.34
56737;BME280;42618;51.226;4.910;2023-05-02T04:01:29;49707.06;;;-146.94;89.84
56737;BME280;42618;51.226;4.910;2023-05-02T04:03:58;49729.00;;;-146.94;89.33
56737;BME280;42618;51.226;4.910;2023-05-02T04:06:29;49731.00;;;-146.94;89.09
56737;BME280;42618;51.226;4.910;2023-05-02T04:09:01;49699.09;;;-146.94;89.44
56737;BME280;42618;51.226;4.910;2023-05-02T04:11:36;49693.13;;;-146.94;89.70
56737;BME280;42618;51.226;4.910;2023-05-02T04:14:04;49719.03;;;-146.94;89.95
56737;BME280;42618;51.226;4.910;2023-05-02T04:16:32;49713.06;;;-146.94;90.30
56737;BME280;42618;51.226;4.910;2023-05-02T04:18:59;49709.06;;;-146.94;90.05
56737;BME280;42618;51.226;4.910;2023-05-02T04:21:26;49689.13;;;-146.94;89.69
56737;BME280;42618;51.226;4.910;2023-05-02T04:23:53;49703.09;;;-146.94;89.68
56737;BME280;42618;51.226;4.910;2023-05-02T04:26:20;49693.13;;;-146.94;89.02
56737;BME280;42618;51.226;4.910;2023-05-02T04:28:59;49731.00;;;-146.94;89.57
56737;BME280;42618;51.226;4.910;2023-05-02T04:31:27;49697.09;;;-146.94;90.17
56737;BME280;42618;51.226;4.910;2023-05-02T04:33:54;49691.13;;;-146.94;89.63
56737;BME280;42618;51.226;4.910;2023-05-02T04:36:24;49727.00;;;-146.94;89.31
56737;BME280;42618;51.226;4.910;2023-05-02T04:38:54;49723.03;;;-146.94;89.76
56737;BME280;42618;51.226;4.910;2023-05-02T04:41:21;49691.13;;;-146.94;89.45
56737;BME280;42618;51.226;4.910;2023-05-02T04:43:55;49703.09;;;-146.94;89.27
56737;BME280;42618;51.226;4.910;2023-05-02T04:46:21;49756.91;;;-146.94;90.05
56737;BME280;42618;51.226;4.910;2023-05-02T04:48:48;49703.09;;;-146.94;90.07
56737;BME280;42618;51.226;4.910;2023-05-02T04:51:15;49742.94;;;-146.94;89.96
56737;BME280;42618;51.226;4.910;2023-05-02T04:53:46;49671.19;;;-146.94;89.83
56737;BME280;42618;51.226;4.910;2023-05-02T04:56:13;49707.06;;;-146.94;89.72
56737;BME280;42618;51.226;4.910;2023-05-02T04:58:40;49687.13;;;-146.94;89.36
56737;BME280;42618;51.226;4.910;2023-05-02T05:01:08;49731.00;;;-146.94;88.60
56737;BME280;42618;51.226;4.910;2023-05-02T05:03:36;49695.09;;;-146.94;88.05
56737;BME280;42618;51.226;4.910;2023-05-02T05:06:05;49707.06;;;-146.94;85.65
56737;BME280;42618;51.226;4.910;2023-05-02T05:08:31;49727.00;;;-146.94;84.44
56737;BME280;42618;51.226;4.910;2023-05-02T05:10:59;49715.03;;;-146.94;84.06
56737;BME280;42618;51.226;4.910;2023-05-02T05:13:26;49677.16;;;-146.94;83.82
56737;BME280;42618;51.226;4.910;2023-05-02T05:15:54;49691.13;;;-146.94;83.72
56737;BME280;42618;51.226;4.910;2023-05-02T05:18:25;49705.06;;;-146.94;82.46
56737;BME280;42618;51.226;4.910;2023-05-02T05:20:52;49707.06;;;-146.94;81.58
56737;BME280;42618;51.226;4.910;2023-05-02T05:23:19;49711.06;;;-146.94;80.36
56737;BME280;42618;51.226;4.910;2023-05-02T05:25:45;49695.09;;;-146.94;79.88
56737;BME280;42618;51.226;4.910;2023-05-02T05:28:15;49734.97;;;-146.94;79.16
56737;BME280;42618;51.226;4.910;2023-05-02T05:30:41;49707.06;;;-146.94;77.42
56737;BME280;42618;51.226;4.910;2023-05-02T05:33:11;49707.06;;;-146.94;77.30
56737;BME280;42618;51.226;4.910;2023-05-02T05:35:39;49746.94;;;-146.94;77.25
56737;BME280;42618;51.226;4.910;2023-05-02T05:38:05;49703.09;;;-146.94;76.20
56737;BME280;42618;51.226;4.910;2023-05-02T05:40:35;49705.06;;;-146.94;76.39
56737;BME280;42618;51.226;4.910;2023-05-02T05:43:02;49705.06;;;-146.94;75.92
56737;BME280;42618;51.226;4.910;2023-05-02T05:45:33;49738.97;;;-146.94;75.59
56737;BME280;42618;51.226;4.910;2023-05-02T05:47:59;49709.06;;;-146.94;75.38
56737;BME280;42618;51.226;4.910;2023-05-02T05:50:30;49723.03;;;-146.94;74.92
56737;BME280;42618;51.226;4.910;2023-05-02T05:52:57;49679.16;;;-146.94;75.02
56737;BME280;42618;51.226;4.910;2023-05-02T05:55:23;49673.19;;;-146.94;74.73
56737;BME280;42618;51.226;4.910;2023-05-02T05:57:52;49695.09;;;-146.94;73.75
56737;BME280;42618;51.226;4.910;2023-05-02T06:00:19;49734.97;;;-146.94;74.07
56737;BME280;42618;51.226;4.910;2023-05-02T06:02:49;49675.19;;;-146.94;73.87
56737;BME280;42618;51.226;4.910;2023-05-02T06:05:34;49723.03;;;-146.94;73.55
56737;BME280;42618;51.226;4.910;2023-05-02T06:08:01;49695.09;;;-146.94;73.13
56737;BME280;42618;51.226;4.910;2023-05-02T06:10:30;49723.03;;;-146.94;73.03
56737;BME280;42618;51.226;4.910;2023-05-02T06:12:57;49697.09;;;-146.94;72.34
56737;BME280;42618;51.226;4.910;2023-05-02T06:15:28;49711.06;;;-146.94;73.01
56737;BME280;42618;51.226;4.910;2023-05-02T06:17:55;49697.09;;;-146.94;72.32
56737;BME280;42618;51.226;4.910;2023-05-02T06:20:22;49695.09;;;-146.94;70.91
56737;BME280;42618;51.226;4.910;2023-05-02T06:22:49;49693.13;;;-146.94;70.54
56737;BME280;42618;51.226;4.910;2023-05-02T06:25:16;49711.06;;;-146.94;69.64
56737;BME280;42618;51.226;4.910;2023-05-02T06:27:42;49695.09;;;-146.94;68.82
56737;BME280;42618;51.226;4.910;2023-05-02T06:30:09;49677.16;;;-146.94;68.59
56737;BME280;42618;51.226;4.910;2023-05-02T06:32:36;49711.06;;;-146.94;70.22
56737;BME280;42618;51.226;4.910;2023-05-02T06:35:03;49707.06;;;-146.94;70.00
56737;BME280;42618;51.226;4.910;2023-05-02T06:37:33;49729.00;;;-146.94;69.09
56737;BME280;42618;51.226;4.910;2023-05-02T06:40:01;49687.13;;;-146.94;68.49
56737;BME280;42618;51.226;4.910;2023-05-02T06:42:29;49683.16;;;-146.94;67.62
56737;BME280;42618;51.226;4.910;2023-05-02T06:44:56;49655.25;;;-146.94;67.64
56737;BME280;42618;51.226;4.910;2023-05-02T06:47:22;49713.06;;;-146.94;67.01
56737;BME280;42618;51.226;4.910;2023-05-02T06:49:50;49669.19;;;-146.94;66.62
56737;BME280;42618;51.226;4.910;2023-05-02T06:52:18;49713.06;;;-146.94;67.27
56737;BME280;42618;51.226;4.910;2023-05-02T06:54:45;49699.09;;;-146.94;67.46
56737;BME280;42618;51.226;4.910;2023-05-02T06:57:11;49695.09;;;-146.94;66.92
56737;BME280;42618;51.226;4.910;2023-05-02T06:59:38;49679.16;;;-146.94;67.51
56737;BME280;42618;51.226;4.910;2023-05-02T07:02:05;49685.13;;;-146.94;67.13
56737;BME280;42618;51.226;4.910;2023-05-02T07:04:32;49683.16;;;-146.94;67.90
56737;BME280;42618;51.226;4.910;2023-05-02T07:06:59;49695.09;;;-146.94;66.84
56737;BME280;42618;51.226;4.910;2023-05-02T07:09:25;49649.25;;;-146.94;66.71
56737;BME280;42618;51.226;4.910;2023-05-02T07:11:52;49727.00;;;-146.94;66.92
56737;BME280;42618;51.226;4.910;2023-05-02T07:14:19;49683.16;;;-146.94;65.99
56737;BME280;42618;51.226;4.910;2023-05-02T07:16:47;49691.13;;;-146.94;65.25
56737;BME280;42618;51.226;4.910;2023-05-02T07:19:14;49667.19;;;-146.94;64.20
56737;BME280;42618;51.226;4.910;2023-05-02T07:21:41;49631.31;;;-146.94;63.72
56737;BME280;42618;51.226;4.910;2023-05-02T07:24:07;49703.09;;;-146.94;63.32
56737;BME280;42618;51.226;4.910;2023-05-02T07:26:34;49683.16;;;-146.94;62.81
56737;BME280;42618;51.226;4.910;2023-05-02T07:29:01;49693.13;;;-146.94;62.92
56737;BME280;42618;51.226;4.910;2023-05-02T07:31:27;49679.16;;;-146.94;63.09
56737;BME280;42618;51.226;4.910;2023-05-02T07:33:54;49691.13;;;-146.94;62.30
56737;BME280;42618;51.226;4.910;2023-05-02T07:36:21;49715.03;;;-146.94;61.96
56737;BME280;42618;51.226;4.910;2023-05-02T07:38:48;49707.06;;;-146.94;62.63
56737;BME280;42618;51.226;4.910;2023-05-02T07:41:15;49719.03;;;-146.94;62.22
56737;BME280;42618;51.226;4.910;2023-05-02T07:43:41;49675.19;;;-146.94;60.29
56737;BME280;42618;51.226;4.910;2023-05-02T07:46:08;49734.97;;;-146.94;58.86
56737;BME280;42618;51.226;4.910;2023-05-02T07:48:35;49661.22;;;-146.94;58.08
56737;BME280;42618;51.226;4.910;2023-05-02T07:51:06;49707.06;;;-146.94;57.13
56737;BME280;42618;51.226;4.910;2023-05-02T07:53:33;49687.13;;;-146.94;55.01
56737;BME280;42618;51.226;4.910;2023-05-02T07:56:02;49691.13;;;-146.94;53.64
56737;BME280;42618;51.226;4.910;2023-05-02T07:58:30;49675.19;;;-146.94;50.95
56737;BME280;42618;51.226;4.910;2023-05-02T08:00:57;49663.22;;;-146.94;50.02
56737;BME280;42618;51.226;4.910;2023-05-02T08:03:23;49677.16;;;-146.94;50.21
56737;BME280;42618;51.226;4.910;2023-05-02T08:05:50;49689.13;;;-146.94;49.97
56737;BME280;42618;51.226;4.910;2023-05-02T08:08:17;49677.16;;;-146.94;50.26
56737;BME280;42618;51.226;4.910;2023-05-02T08:10:44;49641.28;;;-146.94;49.27
56737;BME280;42618;51.226;4.910;2023-05-02T08:13:11;49647.25;;;-146.94;48.53
56737;BME280;42618;51.226;4.910;2023-05-02T08:15:38;49655.25;;;-146.94;46.74
56737;BME280;42618;51.226;4.910;2023-05-02T08:18:05;49635.31;;;-146.94;46.85
56737;BME280;42618;51.226;4.910;2023-05-02T08:20:32;49671.19;;;-146.94;45.19
56737;BME280;42618;51.226;4.910;2023-05-02T08:22:59;49651.25;;;-146.94;46.10
56737;BME280;42618;51.226;4.910;2023-05-02T08:25:26;49603.41;;;-146.94;47.35
56737;BME280;42618;51.226;4.910;2023-05-02T08:27:53;49683.16;;;-146.94;47.30
56737;BME280;42618;51.226;4.910;2023-05-02T08:30:19;49615.38;;;-146.94;47.15
56737;BME280;42618;51.226;4.910;2023-05-02T08:32:46;49643.28;;;-146.94;46.88
56737;BME280;42618;51.226;4.910;2023-05-02T08:35:13;49697.09;;;-146.94;46.04
56737;BME280;42618;51.226;4.910;2023-05-02T08:37:39;49635.31;;;-146.94;45.15
56737;BME280;42618;51.226;4.910;2023-05-02T08:40:10;49663.22;;;-146.94;46.10
56737;BME280;42618;51.226;4.910;2023-05-02T08:42:40;49679.16;;;-146.94;46.54
56737;BME280;42618;51.226;4.910;2023-05-02T08:45:10;49615.38;;;-146.94;46.24
56737;BME280;42618;51.226;4.910;2023-05-02T08:47:40;49653.25;;;-146.94;45.60
56737;BME280;42618;51.226;4.910;2023-05-02T08:50:10;49651.25;;;-146.94;45.17
56737;BME280;42618;51.226;4.910;2023-05-02T08:52:37;49667.19;;;-146.94;45.44
56737;BME280;42618;51.226;4.910;2023-05-02T08:55:05;49679.16;;;-146.94;44.65
56737;BME280;42618;51.226;4.910;2023-05-02T08:57:33;49667.19;;;-146.94;44.98
56737;BME280;42618;51.226;4.910;2023-05-02T08:59:59;49645.28;;;-146.94;43.89
56737;BME280;42618;51.226;4.910;2023-05-02T09:02:40;49643.28;;;-146.94;44.37
56737;BME280;42618;51.226;4.910;2023-05-02T09:05:10;49679.16;;;-146.94;44.16
56737;BME280;42618;51.226;4.910;2023-05-02T09:07:45;49633.31;;;-146.94;44.62
56737;BME280;42618;51.226;4.910;2023-05-02T09:10:13;49655.25;;;-146.94;43.71
56737;BME280;42618;51.226;4.910;2023-05-02T09:12:40;49659.22;;;-146.94;42.84
56737;BME280;42618;51.226;4.910;2023-05-02T09:15:12;49643.28;;;-146.94;41.74
56737;BME280;42618;51.226;4.910;2023-05-02T09:17:40;49607.41;;;-146.94;42.26
56737;BME280;42618;51.226;4.910;2023-05-02T09:20:07;49657.22;;;-146.94;43.66
56737;BME280;42618;51.226;4.910;2023-05-02T09:22:35;49689.13;;;-146.94;42.58
56737;BME280;42618;51.226;4.910;2023-05-02T09:25:06;49655.25;;;-146.94;43.08
56737;BME280;42618;51.226;4.910;2023-05-02T09:27:52;49627.31;;;-146.94;42.63
56737;BME280;42618;51.226;4.910;2023-05-02T09:30:24;49615.38;;;-146.94;41.28
56737;BME280;42618;51.226;4.910;2023-05-02T09:32:52;49607.41;;;-146.94;40.44
56737;BME280;42618;51.226;4.910;2023-05-02T09:35:21;49609.38;;;-146.94;40.59
56737;BME280;42618;51.226;4.910;2023-05-02T09:37:55;49627.31;;;-146.94;41.28
56737;BME280;42618;51.226;4.910;2023-05-02T09:40:23;49629.31;;;-146.94;41.65
56737;BME280;42618;51.226;4.910;2023-05-02T09:42:51;49635.31;;;-146.94;40.99
56737;BME280;42618;51.226;4.910;2023-05-02T09:45:22;49607.41;;;-146.94;40.66
56737;BME280;42618;51.226;4.910;2023-05-02T09:47:50;49611.38;;;-146.94;39.52
56737;BME280;42618;51.226;4.910;2023-05-02T09:50:36;49615.38;;;-146.94;39.39
56737;BME280;42618;51.226;4.910;2023-05-02T09:53:05;49619.34;;;-146.94;38.62
56737;BME280;42618;51.226;4.910;2023-05-02T09:55:32;49631.31;;;-146.94;38.49
56737;BME280;42618;51.226;4.910;2023-05-02T09:57:59;49625.34;;;-146.94;38.91
56737;BME280;42618;51.226;4.910;2023-05-02T10:00:42;49607.41;;;-146.94;38.50
56737;BME280;42618;51.226;4.910;2023-05-02T10:03:10;49605.41;;;-146.94;37.67
56737;BME280;42618;51.226;4.910;2023-05-02T10:05:44;49639.28;;;-146.94;38.41
56737;BME280;42618;51.226;4.910;2023-05-02T10:08:12;49611.38;;;-146.94;39.45
56737;BME280;42618;51.226;4.910;2023-05-02T10:10:41;49655.25;;;-146.94;38.68
56737;BME280;42618;51.226;4.910;2023-05-02T10:13:12;49631.31;;;-146.94;38.80
56737;BME280;42618;51.226;4.910;2023-05-02T10:15:42;49597.44;;;-146.94;38.08
56737;BME280;42618;51.226;4.910;2023-05-02T10:18:16;49633.31;;;-146.94;36.71
56737;BME280;42618;51.226;4.910;2023-05-02T10:20:54;49583.47;;;-146.94;37.35
56737;BME280;42618;51.226;4.910;2023-05-02T10:23:25;49617.38;;;-146.94;37.68
56737;BME280;42618;51.226;4.910;2023-05-02T10:25:53;49623.34;;;-146.94;38.27
56737;BME280;42618;51.226;4.910;2023-05-02T10:28:20;49595.44;;;-146.94;37.85
56737;BME280;42618;51.226;4.910;2023-05-02T10:30:48;49603.41;;;-146.94;38.22
56737;BME280;42618;51.226;4.910;2023-05-02T10:33:16;49607.41;;;-146.94;37.92
56737;BME280;42618;51.226;4.910;2023-05-02T10:35:45;49607.41;;;-146.94;37.60
56737;BME280;42618;51.226;4.910;2023-05-02T10:38:17;49587.47;;;-146.94;35.54
56737;BME280;42618;51.226;4.910;2023-05-02T10:40:53;49571.50;;;-146.94;35.49
56737;BME280;42618;51.226;4.910;2023-05-02T10:43:23;49565.53;;;-146.94;36.20
56737;BME280;42618;51.226;4.910;2023-05-02T10:45:51;49587.47;;;-146.94;37.27
56737;BME280;42618;51.226;4.910;2023-05-02T10:48:23;49623.34;;;-146.94;36.59
56737;BME280;42618;51.226;4.910;2023-05-02T10:50:54;49559.56;;;-146.94;35.19
56737;BME280;42618;51.226;4.910;2023-05-02T10:53:25;49559.56;;;-146.94;35.49
56737;BME280;42618;51.226;4.910;2023-05-02T10:58:36;49545.59;;;-146.94;35.49
56737;BME280;42618;51.226;4.910;2023-05-02T11:04:00;49581.47;;;-146.94;35.46
56737;BME280;42618;51.226;4.910;2023-05-02T11:06:29;49597.44;;;-146.94;34.89
56737;BME280;42618;51.226;4.910;2023-05-02T11:11:43;49597.44;;;-146.94;36.03
56737;BME280;42618;51.226;4.910;2023-05-02T11:22:31;49579.47;;;-146.94;33.36
56737;BME280;42618;51.226;4.910;2023-05-02T11:24:58;49575.50;;;-146.94;33.26
56737;BME280;42618;51.226;4.910;2023-05-02T11:32:23;49579.47;;;-146.94;33.65
56737;BME280;42618;51.226;4.910;2023-05-02T11:34:51;49565.53;;;-146.94;35.06
56737;BME280;42618;51.226;4.910;2023-05-02T11:37:19;49567.53;;;-146.94;33.42
56737;BME280;42618;51.226;4.910;2023-05-02T11:39:46;49577.50;;;-146.94;33.05
56737;BME280;42618;51.226;4.910;2023-05-02T11:42:29;49585.47;;;-146.94;33.65
56737;BME280;42618;51.226;4.910;2023-05-02T11:44:57;49615.38;;;-146.94;34.16
56737;BME280;42618;51.226;4.910;2023-05-02T11:47:26;49565.53;;;-146.94;34.89
56737;BME280;42618;51.226;4.910;2023-05-02T11:49:56;49599.41;;;-146.94;34.28
56737;BME280;42618;51.226;4.910;2023-05-02T11:52:23;49569.50;;;-146.94;34.08
56737;BME280;42618;51.226;4.910;2023-05-02T11:54:54;49579.47;;;-146.94;34.66
56737;BME280;42618;51.226;4.910;2023-05-02T11:57:22;49589.44;;;-146.94;33.77
56737;BME280;42618;51.226;4.910;2023-05-02T11:59:53;49559.56;;;-146.94;34.17
56737;BME280;42618;51.226;4.910;2023-05-02T12:02:34;49585.47;;;-146.94;32.06
56737;BME280;42618;51.226;4.910;2023-05-02T12:05:08;49611.38;;;-146.94;33.29
56737;BME280;42618;51.226;4.910;2023-05-02T12:07:43;49579.47;;;-146.94;33.31
56737;BME280;42618;51.226;4.910;2023-05-02T12:10:12;49545.59;;;-146.94;33.60
56737;BME280;42618;51.226;4.910;2023-05-02T12:12:39;49549.59;;;-146.94;32.60
56737;BME280;42618;51.226;4.910;2023-05-02T12:15:08;49547.59;;;-146.94;32.55
56737;BME280;42618;51.226;4.910;2023-05-02T12:17:40;49549.59;;;-146.94;32.58
56737;BME280;42618;51.226;4.910;2023-05-02T12:20:09;49559.56;;;-146.94;31.84
56737;BME280;42618;51.226;4.910;2023-05-02T12:22:36;49551.56;;;-146.94;32.02
56737;BME280;42618;51.226;4.910;2023-05-02T12:25:04;49597.44;;;-146.94;32.41
56737;BME280;42618;51.226;4.910;2023-05-02T12:27:31;49567.53;;;-146.94;32.85
56737;BME280;42618;51.226;4.910;2023-05-02T12:30:01;49533.63;;;-146.94;32.56
56737;BME280;42618;51.226;4.910;2023-05-02T12:32:30;49555.56;;;-146.94;31.62
56737;BME280;42618;51.226;4.910;2023-05-02T12:34:58;49525.66;;;-146.94;32.22
56737;BME280;42618;51.226;4.910;2023-05-02T12:37:26;49511.72;;;-146.94;31.51
56737;BME280;42618;51.226;4.910;2023-05-02T12:39:54;49559.56;;;-146.94;32.34
56737;BME280;42618;51.226;4.910;2023-05-02T12:42:23;49545.59;;;-146.94;31.48
56737;BME280;42618;51.226;4.910;2023-05-02T12:44:51;49583.47;;;-146.94;32.55
56737;BME280;42618;51.226;4.910;2023-05-02T12:47:19;49543.59;;;-146.94;32.60
56737;BME280;42618;51.226;4.910;2023-05-02T12:49:54;49595.44;;;-146.94;32.98
56737;BME280;42618;51.226;4.910;2023-05-02T12:55:20;49553.56;;;-146.94;31.53
56737;BME280;42618;51.226;4.910;2023-05-02T12:57:52;49509.72;;;-146.94;31.83
56737;BME280;42618;51.226;4.910;2023-05-02T13:00:25;49549.59;;;-146.94;31.70
56737;BME280;42618;51.226;4.910;2023-05-02T13:02:51;49541.59;;;-146.94;31.67
56737;BME280;42618;51.226;4.910;2023-05-02T13:05:19;49601.41;;;-146.94;31.59
56737;BME280;42618;51.226;4.910;2023-05-02T13:07:46;49561.53;;;-146.94;32.81
56737;BME280;42618;51.226;4.910;2023-05-02T13:10:12;49547.59;;;-146.94;31.97
56737;BME280;42618;51.226;4.910;2023-05-02T13:12:40;49531.63;;;-146.94;30.72
56737;BME280;42618;51.226;4.910;2023-05-02T13:15:07;49527.66;;;-146.94;30.12
56737;BME280;42618;51.226;4.910;2023-05-02T13:17:34;49531.63;;;-146.94;30.11
56737;BME280;42618;51.226;4.910;2023-05-02T13:20:01;49519.69;;;-146.94;30.59
56737;BME280;42618;51.226;4.910;2023-05-02T13:22:29;49555.56;;;-146.94;29.81
56737;BME280;42618;51.226;4.910;2023-05-02T13:24:56;49555.56;;;-146.94;31.62
56737;BME280;42618;51.226;4.910;2023-05-02T13:27:22;49547.59;;;-146.94;31.59